Terminal Aerodrome Forecast
Issued by NWS

Home | Current Version | Previous Version | Graphics & Text | Print | Product List | Glossary On
Versions: 1 2 3 4 5 6 7 8 9 10 11 12 13 14 15 16
000
FTUS43 KBIS 201129
TAFDIK
TAF
KDIK 201129Z 2012/2112 19011KT P6SM SCT250
     FM201800 16016G23KT P6SM FEW110 FEW200
     FM202300 15017G25KT P6SM VCTS FEW110CB SCT250
     FM210100 15015G23KT P6SM FEW100 SCT250
     FM210500 18014G23KT P6SM SCT090 BKN250 WS020/20040KT
     FM210800 21010KT P6SM FEW090 SCT250 WS020/21040KT=

USA.gov is the U.S. government's official web portal to all federal, state and local government web resources and services.